14分钟前
罗盘
风向 的 风向 020°
风: 6 千吨, 2 beaufort

添加一条跑道以查看侧风和逆风信息。

添加跑道
0 500 1.500 3.000 5.000 8.000 10.000
未检测到零云
METAR EGGD 201720Z AUTO 02006KT 9999 NCD 02/M04 Q1039

METAR定义 | 嵌入

24小时趋势

航班类别VFRLIFR
温度6 °C1 °C
风速11 千吨0 千吨
能见度10 公里+0 米

更多历史数据

下载我们的安卓应用程序

从你的主屏幕上轻松地访问你的航空天气。
只需一次付费,您就可以获得无广告的体验。

您会帮助我们保持Metar-Taf.com正常运行吗?
您的贡献有助于网站的进一步开发并支付费用。

没有更多广告

您是捐款5美元还是更多?然后,我们将永远不会再向您展示广告,这是我们永恒的感谢!
捐赠前先登录

METAR Batch End Farm Airstrip

该字段位于英国中。

Batch End Farm Airstrip最近未发布观察结果。相反,我们向您显示19 km的报告Bristol Airport。 该报告是针对2022年1月20日 17:20, 当地时间进行的。

机场观察

风来自北北东 (020°)方向,速度为6 千吨。

可见度为10 公里 或者更多。

有未检测到零云。 没有观察到天花板。

温度为2 °C,阵风为-3 °C。 露点为-4 °C,相对湿度为65%。 海平面上的气压为1039 压力 (QNH)。

白天

今天,太阳从08:04升起,在16:40降落。 这适用于Batch End Farm Airstrip,世界夏令时可能有所不同。 当地时间与世界标准时间之间的时差为+0 小时。 当前,没有夏令时有效。

公司介绍

我们没有关于这个机场的公司信息。

体会

到Vliegles.nl去找飞行课程,跳伞和其他飞行体验。 浏览页面,了解Batch End Farm Airstrip附近所有可用的活动。 你也可以使用搜索功能来寻找你所在地附近的特定飞行课程、跳伞或其他飞行体验。

您是否要在网站上Batch End Farm Airstrip飞行的天气? 阅读更多   自由!